sensor_id;sensor_type;location;lat;lon;timestamp;temperature;humidity
14000;DHT22;7075;53.574;10.054;2022-11-23T00:00:44;3.30;99.90
14000;DHT22;7075;53.574;10.054;2022-11-23T00:03:13;3.20;99.90
14000;DHT22;7075;53.574;10.054;2022-11-23T00:05:40;3.30;99.90
14000;DHT22;7075;53.574;10.054;2022-11-23T00:08:05;3.60;99.90
14000;DHT22;7075;53.574;10.054;2022-11-23T00:10:31;5.00;99.90
14000;DHT22;7075;53.574;10.054;2022-11-23T00:12:56;4.70;99.90
14000;DHT22;7075;53.574;10.054;2022-11-23T00:15:22;4.40;99.90
14000;DHT22;7075;53.574;10.054;2022-11-23T00:17:47;4.10;99.90
14000;DHT22;7075;53.574;10.054;2022-11-23T00:20:13;3.90;99.90
14000;DHT22;7075;53.574;10.054;2022-11-23T00:22:38;3.70;99.90
14000;DHT22;7075;53.574;10.054;2022-11-23T00:25:04;3.60;99.90
14000;DHT22;7075;53.574;10.054;2022-11-23T00:27:30;3.60;99.90
14000;DHT22;7075;53.574;10.054;2022-11-23T00:29:55;3.50;99.90
14000;DHT22;7075;53.574;10.054;2022-11-23T00:32:21;3.50;99.90
14000;DHT22;7075;53.574;10.054;2022-11-23T00:34:46;3.50;99.90
14000;DHT22;7075;53.574;10.054;2022-11-23T00:37:12;3.40;99.90
14000;DHT22;7075;53.574;10.054;2022-11-23T00:39:37;3.40;99.90
14000;DHT22;7075;53.574;10.054;2022-11-23T00:42:03;3.50;99.90
14000;DHT22;7075;53.574;10.054;2022-11-23T00:44:29;3.50;99.90
14000;DHT22;7075;53.574;10.054;2022-11-23T00:46:54;3.40;99.90
14000;DHT22;7075;53.574;10.054;2022-11-23T00:49:19;3.50;99.90
14000;DHT22;7075;53.574;10.054;2022-11-23T00:51:46;3.50;99.90
14000;DHT22;7075;53.574;10.054;2022-11-23T00:54:12;3.50;99.90
14000;DHT22;7075;53.574;10.054;2022-11-23T00:56:38;3.50;99.90
14000;DHT22;7075;53.574;10.054;2022-11-23T00:59:03;3.50;99.90
14000;DHT22;7075;53.574;10.054;2022-11-23T01:01:31;3.50;99.90
14000;DHT22;7075;53.574;10.054;2022-11-23T01:04:03;3.50;99.90
14000;DHT22;7075;53.574;10.054;2022-11-23T01:06:34;3.50;99.90
14000;DHT22;7075;53.574;10.054;2022-11-23T01:09:04;3.50;99.90
14000;DHT22;7075;53.574;10.054;2022-11-23T01:11:30;3.50;99.90
14000;DHT22;7075;53.574;10.054;2022-11-23T01:13:56;5.60;99.90
14000;DHT22;7075;53.574;10.054;2022-11-23T01:16:34;6.20;99.90
14000;DHT22;7075;53.574;10.054;2022-11-23T01:19:06;6.20;99.90
14000;DHT22;7075;53.574;10.054;2022-11-23T01:21:33;5.80;99.90
14000;DHT22;7075;53.574;10.054;2022-11-23T01:23:59;5.20;99.90
14000;DHT22;7075;53.574;10.054;2022-11-23T01:26:27;4.70;99.90
14000;DHT22;7075;53.574;10.054;2022-11-23T01:28:53;4.40;99.90
14000;DHT22;7075;53.574;10.054;2022-11-23T01:31:21;4.20;99.90
14000;DHT22;7075;53.574;10.054;2022-11-23T01:33:47;4.10;99.90
14000;DHT22;7075;53.574;10.054;2022-11-23T01:36:18;4.00;99.90
14000;DHT22;7075;53.574;10.054;2022-11-23T01:38:45;3.90;99.90
14000;DHT22;7075;53.574;10.054;2022-11-23T01:41:14;3.90;99.90
14000;DHT22;7075;53.574;10.054;2022-11-23T01:43:39;3.80;99.90
14000;DHT22;7075;53.574;10.054;2022-11-23T01:46:06;3.80;99.90
14000;DHT22;7075;53.574;10.054;2022-11-23T01:51:14;3.80;99.90
14000;DHT22;7075;53.574;10.054;2022-11-23T01:53:42;3.70;99.90
14000;DHT22;7075;53.574;10.054;2022-11-23T01:56:14;3.70;99.90
14000;DHT22;7075;53.574;10.054;2022-11-23T01:58:42;3.70;99.90
14000;DHT22;7075;53.574;10.054;2022-11-23T02:01:09;3.70;99.90
14000;DHT22;7075;53.574;10.054;2022-11-23T02:03:36;3.70;99.90
14000;DHT22;7075;53.574;10.054;2022-11-23T02:06:08;3.70;99.90
14000;DHT22;7075;53.574;10.054;2022-11-23T02:08:36;3.70;99.90
14000;DHT22;7075;53.574;10.054;2022-11-23T02:11:02;3.70;99.90
14000;DHT22;7075;53.574;10.054;2022-11-23T02:13:28;3.80;99.90
14000;DHT22;7075;53.574;10.054;2022-11-23T02:15:55;3.70;99.90
14000;DHT22;7075;53.574;10.054;2022-11-23T02:18:25;3.80;99.90
14000;DHT22;7075;53.574;10.054;2022-11-23T02:20:52;3.80;99.90
14000;DHT22;7075;53.574;10.054;2022-11-23T02:23:42;3.80;99.90
14000;DHT22;7075;53.574;10.054;2022-11-23T02:26:15;3.80;99.90
14000;DHT22;7075;53.574;10.054;2022-11-23T02:28:50;3.80;99.90
14000;DHT22;7075;53.574;10.054;2022-11-23T02:31:17;3.80;99.90
14000;DHT22;7075;53.574;10.054;2022-11-23T02:33:42;3.80;99.90
14000;DHT22;7075;53.574;10.054;2022-11-23T02:41:37;3.80;99.90
14000;DHT22;7075;53.574;10.054;2022-11-23T02:44:03;3.90;99.90
14000;DHT22;7075;53.574;10.054;2022-11-23T02:46:31;3.90;99.90
14000;DHT22;7075;53.574;10.054;2022-11-23T02:48:57;3.90;99.90
14000;DHT22;7075;53.574;10.054;2022-11-23T02:51:23;3.90;99.90
14000;DHT22;7075;53.574;10.054;2022-11-23T02:53:48;3.90;99.90
14000;DHT22;7075;53.574;10.054;2022-11-23T02:56:14;4.00;99.90
14000;DHT22;7075;53.574;10.054;2022-11-23T02:58:39;4.00;99.90
14000;DHT22;7075;53.574;10.054;2022-11-23T03:01:05;4.00;99.90
14000;DHT22;7075;53.574;10.054;2022-11-23T03:03:30;4.00;99.90
14000;DHT22;7075;53.574;10.054;2022-11-23T03:05:56;4.00;99.90
14000;DHT22;7075;53.574;10.054;2022-11-23T03:08:21;4.00;99.90
14000;DHT22;7075;53.574;10.054;2022-11-23T03:10:47;4.10;99.90
14000;DHT22;7075;53.574;10.054;2022-11-23T03:13:13;4.10;99.90
14000;DHT22;7075;53.574;10.054;2022-11-23T03:15:38;4.10;99.90
14000;DHT22;7075;53.574;10.054;2022-11-23T03:18:04;4.10;99.90
14000;DHT22;7075;53.574;10.054;2022-11-23T03:20:29;4.10;99.90
14000;DHT22;7075;53.574;10.054;2022-11-23T03:22:55;4.20;99.90
14000;DHT22;7075;53.574;10.054;2022-11-23T03:25:20;4.20;99.90
14000;DHT22;7075;53.574;10.054;2022-11-23T03:27:46;4.20;99.90
14000;DHT22;7075;53.574;10.054;2022-11-23T03:30:12;4.20;99.90
14000;DHT22;7075;53.574;10.054;2022-11-23T03:32:37;4.30;99.90
14000;DHT22;7075;53.574;10.054;2022-11-23T03:35:03;4.30;99.90
14000;DHT22;7075;53.574;10.054;2022-11-23T03:37:29;4.20;99.90
14000;DHT22;7075;53.574;10.054;2022-11-23T03:39:55;4.20;99.90
14000;DHT22;7075;53.574;10.054;2022-11-23T03:42:20;4.20;99.90
14000;DHT22;7075;53.574;10.054;2022-11-23T03:44:46;4.20;99.90
14000;DHT22;7075;53.574;10.054;2022-11-23T03:47:11;4.20;99.90
14000;DHT22;7075;53.574;10.054;2022-11-23T03:49:37;4.30;99.90
14000;DHT22;7075;53.574;10.054;2022-11-23T03:52:03;4.30;99.90
14000;DHT22;7075;53.574;10.054;2022-11-23T03:54:29;4.30;99.90
14000;DHT22;7075;53.574;10.054;2022-11-23T03:56:54;4.30;99.90
14000;DHT22;7075;53.574;10.054;2022-11-23T03:59:19;4.30;99.90
14000;DHT22;7075;53.574;10.054;2022-11-23T04:01:45;4.30;99.90
14000;DHT22;7075;53.574;10.054;2022-11-23T04:04:11;4.30;99.90
14000;DHT22;7075;53.574;10.054;2022-11-23T04:06:36;4.30;99.90
14000;DHT22;7075;53.574;10.054;2022-11-23T04:09:02;4.30;99.90
14000;DHT22;7075;53.574;10.054;2022-11-23T04:11:27;4.30;99.90
14000;DHT22;7075;53.574;10.054;2022-11-23T04:13:53;4.30;99.90
14000;DHT22;7075;53.574;10.054;2022-11-23T04:16:19;4.30;99.90
14000;DHT22;7075;53.574;10.054;2022-11-23T04:18:44;4.40;99.90
14000;DHT22;7075;53.574;10.054;2022-11-23T04:21:10;4.30;99.90
14000;DHT22;7075;53.574;10.054;2022-11-23T04:23:35;4.30;99.90
14000;DHT22;7075;53.574;10.054;2022-11-23T04:26:01;4.30;99.90
14000;DHT22;7075;53.574;10.054;2022-11-23T04:28:26;4.30;99.90
14000;DHT22;7075;53.574;10.054;2022-11-23T04:30:52;4.40;99.90
14000;DHT22;7075;53.574;10.054;2022-11-23T04:33:17;4.30;99.90
14000;DHT22;7075;53.574;10.054;2022-11-23T04:35:43;4.30;99.90
14000;DHT22;7075;53.574;10.054;2022-11-23T04:38:08;4.40;99.90
14000;DHT22;7075;53.574;10.054;2022-11-23T04:40:34;4.40;99.90
14000;DHT22;7075;53.574;10.054;2022-11-23T04:42:59;4.40;99.90
14000;DHT22;7075;53.574;10.054;2022-11-23T04:45:25;4.40;99.90
14000;DHT22;7075;53.574;10.054;2022-11-23T04:47:50;4.40;99.90
14000;DHT22;7075;53.574;10.054;2022-11-23T04:50:16;4.40;99.90
14000;DHT22;7075;53.574;10.054;2022-11-23T04:52:42;4.50;99.90
14000;DHT22;7075;53.574;10.054;2022-11-23T04:55:07;4.50;99.90
14000;DHT22;7075;53.574;10.054;2022-11-23T04:57:33;4.50;99.90
14000;DHT22;7075;53.574;10.054;2022-11-23T04:59:59;4.50;99.90
14000;DHT22;7075;53.574;10.054;2022-11-23T05:02:24;4.40;99.90
14000;DHT22;7075;53.574;10.054;2022-11-23T05:04:50;4.40;99.90
14000;DHT22;7075;53.574;10.054;2022-11-23T05:07:15;4.50;99.90
14000;DHT22;7075;53.574;10.054;2022-11-23T05:09:41;4.40;99.90
14000;DHT22;7075;53.574;10.054;2022-11-23T05:12:08;4.50;99.90
14000;DHT22;7075;53.574;10.054;2022-11-23T05:14:34;4.50;99.90
14000;DHT22;7075;53.574;10.054;2022-11-23T05:16:59;4.50;99.90
14000;DHT22;7075;53.574;10.054;2022-11-23T05:19:25;4.40;99.90
14000;DHT22;7075;53.574;10.054;2022-11-23T05:21:50;4.40;99.90
14000;DHT22;7075;53.574;10.054;2022-11-23T05:24:16;4.50;99.90
14000;DHT22;7075;53.574;10.054;2022-11-23T05:26:41;4.50;99.90
14000;DHT22;7075;53.574;10.054;2022-11-23T05:29:07;4.50;99.90
14000;DHT22;7075;53.574;10.054;2022-11-23T05:31:33;4.50;99.90
14000;DHT22;7075;53.574;10.054;2022-11-23T05:33:58;4.50;99.90
14000;DHT22;7075;53.574;10.054;2022-11-23T05:36:24;4.50;99.90
14000;DHT22;7075;53.574;10.054;2022-11-23T05:38:49;4.50;99.90
14000;DHT22;7075;53.574;10.054;2022-11-23T05:41:15;4.50;99.90
14000;DHT22;7075;53.574;10.054;2022-11-23T05:43:41;4.50;99.90
14000;DHT22;7075;53.574;10.054;2022-11-23T05:46:06;4.50;99.90
14000;DHT22;7075;53.574;10.054;2022-11-23T05:48:32;4.50;99.90
14000;DHT22;7075;53.574;10.054;2022-11-23T05:50:58;4.60;99.90
14000;DHT22;7075;53.574;10.054;2022-11-23T05:53:23;4.60;99.90
14000;DHT22;7075;53.574;10.054;2022-11-23T05:55:49;4.60;99.90
14000;DHT22;7075;53.574;10.054;2022-11-23T05:58:14;4.60;99.90
14000;DHT22;7075;53.574;10.054;2022-11-23T06:00:40;4.60;99.90
14000;DHT22;7075;53.574;10.054;2022-11-23T06:03:06;4.60;99.90
14000;DHT22;7075;53.574;10.054;2022-11-23T06:05:31;4.50;99.90
14000;DHT22;7075;53.574;10.054;2022-11-23T06:07:57;4.50;99.90
14000;DHT22;7075;53.574;10.054;2022-11-23T06:10:23;4.60;99.90
14000;DHT22;7075;53.574;10.054;2022-11-23T06:12:48;4.60;99.90
14000;DHT22;7075;53.574;10.054;2022-11-23T06:15:15;4.50;99.90
14000;DHT22;7075;53.574;10.054;2022-11-23T06:17:40;4.60;99.90
14000;DHT22;7075;53.574;10.054;2022-11-23T06:20:07;4.60;99.90
14000;DHT22;7075;53.574;10.054;2022-11-23T06:22:33;4.70;99.90
14000;DHT22;7075;53.574;10.054;2022-11-23T06:24:58;4.60;99.90
14000;DHT22;7075;53.574;10.054;2022-11-23T06:27:24;4.60;99.90
14000;DHT22;7075;53.574;10.054;2022-11-23T06:29:49;4.60;99.90
14000;DHT22;7075;53.574;10.054;2022-11-23T06:32:15;4.60;99.90
14000;DHT22;7075;53.574;10.054;2022-11-23T06:34:41;4.70;99.90
14000;DHT22;7075;53.574;10.054;2022-11-23T06:37:06;4.60;99.90
14000;DHT22;7075;53.574;10.054;2022-11-23T06:39:32;4.60;99.90
14000;DHT22;7075;53.574;10.054;2022-11-23T06:41:57;4.70;99.90
14000;DHT22;7075;53.574;10.054;2022-11-23T06:44:23;4.70;99.90
14000;DHT22;7075;53.574;10.054;2022-11-23T06:46:49;4.70;99.90
14000;DHT22;7075;53.574;10.054;2022-11-23T06:49:14;4.60;99.90
14000;DHT22;7075;53.574;10.054;2022-11-23T06:51:41;4.60;99.90
14000;DHT22;7075;53.574;10.054;2022-11-23T06:54:07;4.70;99.90
14000;DHT22;7075;53.574;10.054;2022-11-23T06:56:33;4.70;99.90
14000;DHT22;7075;53.574;10.054;2022-11-23T06:58:58;4.70;99.90
14000;DHT22;7075;53.574;10.054;2022-11-23T07:01:24;4.70;99.90
14000;DHT22;7075;53.574;10.054;2022-11-23T07:03:50;4.70;99.90
14000;DHT22;7075;53.574;10.054;2022-11-23T07:06:15;4.70;99.90
14000;DHT22;7075;53.574;10.054;2022-11-23T07:08:41;4.70;99.90
14000;DHT22;7075;53.574;10.054;2022-11-23T07:11:10;4.70;99.90
14000;DHT22;7075;53.574;10.054;2022-11-23T07:13:37;4.80;99.90
14000;DHT22;7075;53.574;10.054;2022-11-23T07:16:03;4.80;99.90
14000;DHT22;7075;53.574;10.054;2022-11-23T07:18:29;4.80;99.90
14000;DHT22;7075;53.574;10.054;2022-11-23T07:20:58;4.80;99.90
14000;DHT22;7075;53.574;10.054;2022-11-23T07:23:25;4.80;99.90
14000;DHT22;7075;53.574;10.054;2022-11-23T07:25:51;4.80;99.90
14000;DHT22;7075;53.574;10.054;2022-11-23T07:28:17;4.80;99.90
14000;DHT22;7075;53.574;10.054;2022-11-23T07:30:43;4.90;99.90
14000;DHT22;7075;53.574;10.054;2022-11-23T07:33:10;4.90;99.90
14000;DHT22;7075;53.574;10.054;2022-11-23T07:35:38;4.90;99.90
14000;DHT22;7075;53.574;10.054;2022-11-23T07:38:04;4.90;99.90
14000;DHT22;7075;53.574;10.054;2022-11-23T07:40:32;4.90;99.90
14000;DHT22;7075;53.574;10.054;2022-11-23T07:43:01;4.90;99.90
14000;DHT22;7075;53.574;10.054;2022-11-23T07:45:27;4.90;99.90
14000;DHT22;7075;53.574;10.054;2022-11-23T07:48:01;4.90;99.90
14000;DHT22;7075;53.574;10.054;2022-11-23T07:50:27;5.00;99.90
14000;DHT22;7075;53.574;10.054;2022-11-23T07:52:54;5.00;99.90
14000;DHT22;7075;53.574;10.054;2022-11-23T07:55:19;4.90;99.90
14000;DHT22;7075;53.574;10.054;2022-11-23T07:57:45;5.00;99.90
14000;DHT22;7075;53.574;10.054;2022-11-23T08:00:11;5.00;99.90
14000;DHT22;7075;53.574;10.054;2022-11-23T08:02:37;5.00;99.90
14000;DHT22;7075;53.574;10.054;2022-11-23T08:05:03;5.00;99.90
14000;DHT22;7075;53.574;10.054;2022-11-23T08:07:29;5.00;99.90
14000;DHT22;7075;53.574;10.054;2022-11-23T08:09:54;5.10;99.90
14000;DHT22;7075;53.574;10.054;2022-11-23T08:12:20;5.10;99.90
14000;DHT22;7075;53.574;10.054;2022-11-23T08:14:46;5.10;99.90
14000;DHT22;7075;53.574;10.054;2022-11-23T08:17:11;5.10;99.90
14000;DHT22;7075;53.574;10.054;2022-11-23T08:19:37;5.10;99.90
14000;DHT22;7075;53.574;10.054;2022-11-23T08:22:03;5.10;99.90
14000;DHT22;7075;53.574;10.054;2022-11-23T08:24:28;5.20;99.90
14000;DHT22;7075;53.574;10.054;2022-11-23T08:26:54;5.20;99.90
14000;DHT22;7075;53.574;10.054;2022-11-23T08:29:20;5.20;99.90
14000;DHT22;7075;53.574;10.054;2022-11-23T08:31:46;5.20;99.90
14000;DHT22;7075;53.574;10.054;2022-11-23T08:34:12;5.30;99.90
14000;DHT22;7075;53.574;10.054;2022-11-23T08:36:38;5.30;99.90
14000;DHT22;7075;53.574;10.054;2022-11-23T08:39:04;5.30;99.90
14000;DHT22;7075;53.574;10.054;2022-11-23T08:41:30;5.30;99.90
14000;DHT22;7075;53.574;10.054;2022-11-23T08:43:56;5.30;99.90
14000;DHT22;7075;53.574;10.054;2022-11-23T08:46:21;5.40;99.90
14000;DHT22;7075;53.574;10.054;2022-11-23T08:48:47;5.40;99.90
14000;DHT22;7075;53.574;10.054;2022-11-23T08:51:12;5.50;99.90
14000;DHT22;7075;53.574;10.054;2022-11-23T08:53:38;5.50;99.90
14000;DHT22;7075;53.574;10.054;2022-11-23T08:56:05;5.50;99.90
14000;DHT22;7075;53.574;10.054;2022-11-23T08:58:32;5.60;99.90
14000;DHT22;7075;53.574;10.054;2022-11-23T09:00:57;5.60;99.90
14000;DHT22;7075;53.574;10.054;2022-11-23T09:03:24;5.60;99.90
14000;DHT22;7075;53.574;10.054;2022-11-23T09:05:49;5.60;99.90
14000;DHT22;7075;53.574;10.054;2022-11-23T09:08:16;5.60;99.90
14000;DHT22;7075;53.574;10.054;2022-11-23T09:10:42;5.60;99.90
14000;DHT22;7075;53.574;10.054;2022-11-23T09:13:07;5.60;99.90
14000;DHT22;7075;53.574;10.054;2022-11-23T09:15:34;5.60;99.90
14000;DHT22;7075;53.574;10.054;2022-11-23T09:18:00;5.70;99.90
14000;DHT22;7075;53.574;10.054;2022-11-23T09:20:25;5.70;99.90
14000;DHT22;7075;53.574;10.054;2022-11-23T09:22:52;5.80;99.90
14000;DHT22;7075;53.574;10.054;2022-11-23T09:25:18;5.80;99.90
14000;DHT22;7075;53.574;10.054;2022-11-23T09:27:45;5.90;99.90
14000;DHT22;7075;53.574;10.054;2022-11-23T09:30:11;5.90;99.90
14000;DHT22;7075;53.574;10.054;2022-11-23T09:32:37;6.00;99.90
14000;DHT22;7075;53.574;10.054;2022-11-23T09:35:03;6.10;99.90
14000;DHT22;7075;53.574;10.054;2022-11-23T09:37:29;6.30;99.90
14000;DHT22;7075;53.574;10.054;2022-11-23T09:39:54;6.50;99.90
14000;DHT22;7075;53.574;10.054;2022-11-23T09:45:15;6.60;99.90
14000;DHT22;7075;53.574;10.054;2022-11-23T09:50:27;6.50;99.90
14000;DHT22;7075;53.574;10.054;2022-11-23T09:52:54;6.60;99.90
14000;DHT22;7075;53.574;10.054;2022-11-23T09:55:36;6.70;99.90
14000;DHT22;7075;53.574;10.054;2022-11-23T09:58:05;6.80;99.90
14000;DHT22;7075;53.574;10.054;2022-11-23T10:00:42;7.00;99.90
14000;DHT22;7075;53.574;10.054;2022-11-23T10:03:16;7.20;99.90
14000;DHT22;7075;53.574;10.054;2022-11-23T10:11:30;7.10;99.90
14000;DHT22;7075;53.574;10.054;2022-11-23T10:16:37;7.00;99.90
14000;DHT22;7075;53.574;10.054;2022-11-23T10:22:29;7.00;99.90
14000;DHT22;7075;53.574;10.054;2022-11-23T10:25:00;7.00;99.90
14000;DHT22;7075;53.574;10.054;2022-11-23T10:27:30;7.10;99.90
14000;DHT22;7075;53.574;10.054;2022-11-23T10:29:58;7.10;99.90
14000;DHT22;7075;53.574;10.054;2022-11-23T10:32:45;7.20;99.90
14000;DHT22;7075;53.574;10.054;2022-11-23T10:35:27;7.30;99.90
14000;DHT22;7075;53.574;10.054;2022-11-23T10:38:15;7.40;99.90
14000;DHT22;7075;53.574;10.054;2022-11-23T10:43:30;7.60;99.90
14000;DHT22;7075;53.574;10.054;2022-11-23T10:46:23;7.80;99.90
14000;DHT22;7075;53.574;10.054;2022-11-23T10:48:50;7.90;99.90
14000;DHT22;7075;53.574;10.054;2022-11-23T10:51:32;7.90;99.90
14000;DHT22;7075;53.574;10.054;2022-11-23T10:54:04;7.80;99.90
14000;DHT22;7075;53.574;10.054;2022-11-23T10:56:32;7.80;99.90
14000;DHT22;7075;53.574;10.054;2022-11-23T10:58:58;7.80;99.90
14000;DHT22;7075;53.574;10.054;2022-11-23T11:01:25;7.60;99.90
14000;DHT22;7075;53.574;10.054;2022-11-23T11:03:54;7.60;99.90
14000;DHT22;7075;53.574;10.054;2022-11-23T11:06:22;7.50;99.90
14000;DHT22;7075;53.574;10.054;2022-11-23T11:09:02;7.50;99.90
14000;DHT22;7075;53.574;10.054;2022-11-23T11:11:29;7.50;99.90
14000;DHT22;7075;53.574;10.054;2022-11-23T11:14:17;7.40;99.90
14000;DHT22;7075;53.574;10.054;2022-11-23T11:16:51;7.40;99.90
14000;DHT22;7075;53.574;10.054;2022-11-23T11:19:32;7.40;99.90
14000;DHT22;7075;53.574;10.054;2022-11-23T11:22:01;7.50;99.90
14000;DHT22;7075;53.574;10.054;2022-11-23T11:24:42;7.50;99.90
14000;DHT22;7075;53.574;10.054;2022-11-23T11:27:18;7.50;99.90
14000;DHT22;7075;53.574;10.054;2022-11-23T11:32:13;7.50;99.90
14000;DHT22;7075;53.574;10.054;2022-11-23T11:35:03;7.50;99.90
14000;DHT22;7075;53.574;10.054;2022-11-23T11:37:38;7.60;99.90
14000;DHT22;7075;53.574;10.054;2022-11-23T11:40:37;7.60;99.90
14000;DHT22;7075;53.574;10.054;2022-11-23T11:45:52;7.70;99.90
14000;DHT22;7075;53.574;10.054;2022-11-23T11:51:06;7.70;99.90
14000;DHT22;7075;53.574;10.054;2022-11-23T11:56:35;7.80;99.90
14000;DHT22;7075;53.574;10.054;2022-11-23T11:59:21;7.80;99.90
14000;DHT22;7075;53.574;10.054;2022-11-23T12:07:34;7.90;99.90
14000;DHT22;7075;53.574;10.054;2022-11-23T12:12:57;8.20;99.90
14000;DHT22;7075;53.574;10.054;2022-11-23T12:15:33;8.30;99.90
14000;DHT22;7075;53.574;10.054;2022-11-23T12:18:39;8.40;99.90
14000;DHT22;7075;53.574;10.054;2022-11-23T12:26:57;8.90;99.90
14000;DHT22;7075;53.574;10.054;2022-11-23T12:29:45;9.30;99.90
14000;DHT22;7075;53.574;10.054;2022-11-23T12:37:51;9.60;99.90
14000;DHT22;7075;53.574;10.054;2022-11-23T12:40:47;9.90;99.90
14000;DHT22;7075;53.574;10.054;2022-11-23T12:43:21;10.10;99.90
14000;DHT22;7075;53.574;10.054;2022-11-23T12:46:09;10.40;99.90
14000;DHT22;7075;53.574;10.054;2022-11-23T12:48:48;10.40;99.90
14000;DHT22;7075;53.574;10.054;2022-11-23T12:54:15;11.00;99.90
14000;DHT22;7075;53.574;10.054;2022-11-23T13:09:01;10.40;99.90
14000;DHT22;7075;53.574;10.054;2022-11-23T13:17:05;9.70;99.90
14000;DHT22;7075;53.574;10.054;2022-11-23T13:22:31;9.40;99.90
14000;DHT22;7075;53.574;10.054;2022-11-23T13:25:28;9.30;99.90
14000;DHT22;7075;53.574;10.054;2022-11-23T13:27:56;9.30;99.90
14000;DHT22;7075;53.574;10.054;2022-11-23T13:30:26;9.30;99.90
14000;DHT22;7075;53.574;10.054;2022-11-23T13:32:58;9.30;99.90
14000;DHT22;7075;53.574;10.054;2022-11-23T13:40:34;9.30;99.90
14000;DHT22;7075;53.574;10.054;2022-11-23T13:45:40;9.30;99.90
14000;DHT22;7075;53.574;10.054;2022-11-23T13:50:39;9.10;99.90
14000;DHT22;7075;53.574;10.054;2022-11-23T13:53:32;9.10;99.90
14000;DHT22;7075;53.574;10.054;2022-11-23T13:58:58;9.10;99.90
14000;DHT22;7075;53.574;10.054;2022-11-23T14:04:40;9.20;99.90
14000;DHT22;7075;53.574;10.054;2022-11-23T14:07:25;9.30;99.90
14000;DHT22;7075;53.574;10.054;2022-11-23T14:10:04;9.50;99.90
14000;DHT22;7075;53.574;10.054;2022-11-23T14:15:26;9.50;99.90
14000;DHT22;7075;53.574;10.054;2022-11-23T14:21:04;9.50;99.90
14000;DHT22;7075;53.574;10.054;2022-11-23T14:32:30;9.30;99.90
14000;DHT22;7075;53.574;10.054;2022-11-23T14:35:09;9.30;99.90
14000;DHT22;7075;53.574;10.054;2022-11-23T14:38:02;9.30;99.90
14000;DHT22;7075;53.574;10.054;2022-11-23T14:41:06;9.30;99.90
14000;DHT22;7075;53.574;10.054;2022-11-23T14:43:34;9.30;99.90
14000;DHT22;7075;53.574;10.054;2022-11-23T14:46:02;9.20;99.90
14000;DHT22;7075;53.574;10.054;2022-11-23T14:48:31;9.30;99.90
14000;DHT22;7075;53.574;10.054;2022-11-23T14:51:00;9.30;99.90
14000;DHT22;7075;53.574;10.054;2022-11-23T14:53:30;9.20;99.90
14000;DHT22;7075;53.574;10.054;2022-11-23T14:55:57;9.10;99.90
14000;DHT22;7075;53.574;10.054;2022-11-23T14:58:25;9.10;99.90
14000;DHT22;7075;53.574;10.054;2022-11-23T15:01:00;9.10;99.90
14000;DHT22;7075;53.574;10.054;2022-11-23T15:03:28;9.00;99.90
14000;DHT22;7075;53.574;10.054;2022-11-23T15:06:13;9.00;99.90
14000;DHT22;7075;53.574;10.054;2022-11-23T15:08:50;9.00;99.90
14000;DHT22;7075;53.574;10.054;2022-11-23T15:11:20;9.00;99.90
14000;DHT22;7075;53.574;10.054;2022-11-23T15:13:50;9.00;99.90
14000;DHT22;7075;53.574;10.054;2022-11-23T15:16:18;8.90;99.90
14000;DHT22;7075;53.574;10.054;2022-11-23T15:18:45;8.90;99.90
14000;DHT22;7075;53.574;10.054;2022-11-23T15:23:53;8.80;99.90
14000;DHT22;7075;53.574;10.054;2022-11-23T15:26:29;8.80;99.90
14000;DHT22;7075;53.574;10.054;2022-11-23T15:28:55;8.70;99.90
14000;DHT22;7075;53.574;10.054;2022-11-23T15:31:28;8.60;99.90
14000;DHT22;7075;53.574;10.054;2022-11-23T15:33:59;8.60;99.90
14000;DHT22;7075;53.574;10.054;2022-11-23T15:36:29;8.60;99.90
14000;DHT22;7075;53.574;10.054;2022-11-23T15:39:00;8.50;99.90
14000;DHT22;7075;53.574;10.054;2022-11-23T15:41:37;8.50;99.90
14000;DHT22;7075;53.574;10.054;2022-11-23T15:44:22;8.40;99.90
14000;DHT22;7075;53.574;10.054;2022-11-23T15:46:57;8.30;99.90
14000;DHT22;7075;53.574;10.054;2022-11-23T15:49:24;8.20;99.90
14000;DHT22;7075;53.574;10.054;2022-11-23T15:51:50;8.30;99.90
14000;DHT22;7075;53.574;10.054;2022-11-23T15:54:22;8.20;99.90
14000;DHT22;7075;53.574;10.054;2022-11-23T15:56:52;8.20;99.90
14000;DHT22;7075;53.574;10.054;2022-11-23T16:01:54;8.20;99.90
14000;DHT22;7075;53.574;10.054;2022-11-23T16:06:52;8.00;99.90
14000;DHT22;7075;53.574;10.054;2022-11-23T16:09:39;8.00;99.90
14000;DHT22;7075;53.574;10.054;2022-11-23T16:12:20;8.00;99.90
14000;DHT22;7075;53.574;10.054;2022-11-23T16:14:46;8.00;99.90
14000;DHT22;7075;53.574;10.054;2022-11-23T16:17:25;8.00;99.90
14000;DHT22;7075;53.574;10.054;2022-11-23T16:20:02;8.00;99.90
14000;DHT22;7075;53.574;10.054;2022-11-23T16:22:38;7.90;99.90
14000;DHT22;7075;53.574;10.054;2022-11-23T16:27:43;8.00;99.90
14000;DHT22;7075;53.574;10.054;2022-11-23T16:30:27;8.00;99.90
14000;DHT22;7075;53.574;10.054;2022-11-23T16:32:58;7.90;99.90
14000;DHT22;7075;53.574;10.054;2022-11-23T16:35:24;7.90;99.90
14000;DHT22;7075;53.574;10.054;2022-11-23T16:37:50;7.90;99.90
14000;DHT22;7075;53.574;10.054;2022-11-23T16:40:16;7.90;99.90
14000;DHT22;7075;53.574;10.054;2022-11-23T16:42:42;7.90;99.90
14000;DHT22;7075;53.574;10.054;2022-11-23T16:45:10;7.80;99.90
14000;DHT22;7075;53.574;10.054;2022-11-23T16:47:52;7.90;99.90
14000;DHT22;7075;53.574;10.054;2022-11-23T16:50:18;7.90;99.90
14000;DHT22;7075;53.574;10.054;2022-11-23T16:52:44;7.80;99.90
14000;DHT22;7075;53.574;10.054;2022-11-23T16:55:10;7.80;99.90
14000;DHT22;7075;53.574;10.054;2022-11-23T16:57:36;7.80;99.90
14000;DHT22;7075;53.574;10.054;2022-11-23T17:00:22;7.70;99.90
14000;DHT22;7075;53.574;10.054;2022-11-23T17:02:51;7.80;99.90
14000;DHT22;7075;53.574;10.054;2022-11-23T17:05:21;7.80;99.90
14000;DHT22;7075;53.574;10.054;2022-11-23T17:07:48;7.80;99.90
14000;DHT22;7075;53.574;10.054;2022-11-23T17:10:15;7.80;99.90
14000;DHT22;7075;53.574;10.054;2022-11-23T17:12:49;7.80;99.90
14000;DHT22;7075;53.574;10.054;2022-11-23T17:15:18;7.80;99.90
14000;DHT22;7075;53.574;10.054;2022-11-23T17:17:44;7.70;99.90
14000;DHT22;7075;53.574;10.054;2022-11-23T17:20:14;7.70;99.90
14000;DHT22;7075;53.574;10.054;2022-11-23T17:22:40;7.60;99.90
14000;DHT22;7075;53.574;10.054;2022-11-23T17:25:08;7.60;99.90
14000;DHT22;7075;53.574;10.054;2022-11-23T17:27:36;7.60;99.90
14000;DHT22;7075;53.574;10.054;2022-11-23T17:30:18;7.50;99.90
14000;DHT22;7075;53.574;10.054;2022-11-23T17:32:46;7.40;99.90
14000;DHT22;7075;53.574;10.054;2022-11-23T17:35:13;7.40;99.90
14000;DHT22;7075;53.574;10.054;2022-11-23T17:37:40;7.40;99.90
14000;DHT22;7075;53.574;10.054;2022-11-23T17:40:16;7.80;99.90
14000;DHT22;7075;53.574;10.054;2022-11-23T17:42:42;7.60;99.90
14000;DHT22;7075;53.574;10.054;2022-11-23T17:45:08;7.50;99.90
14000;DHT22;7075;53.574;10.054;2022-11-23T17:47:34;7.40;99.90
14000;DHT22;7075;53.574;10.054;2022-11-23T17:50:01;7.40;99.90
14000;DHT22;7075;53.574;10.054;2022-11-23T17:52:27;7.40;99.90
14000;DHT22;7075;53.574;10.054;2022-11-23T17:54:53;7.30;99.90
14000;DHT22;7075;53.574;10.054;2022-11-23T17:57:24;7.30;99.90
14000;DHT22;7075;53.574;10.054;2022-11-23T17:59:52;7.20;99.90